Time;durP1;ratioP1;P1;durP2;ratioP2;P2;SDS_P1;SDS_P2;PMS_P1;PMS_P2;Temp;Humidity;BMP_temperature;BMP_pressure;BME280_temperature;BME280_humidity;BME280_pressure;Samples;Min_cycle;Max_cycle;Signal;HPM_P1;HPM_P2
2021/12/17 00:02:28;;;;;;;101.03;50.57;;;2.50;99.90;;;;;;5032397;28;20237;-64
2021/12/17 00:04:54;;;;;;;81.80;42.83;;;2.50;99.90;;;;;;5050998;28;20204;-64
2021/12/17 00:07:28;;;;;;;72.33;41.17;;;2.40;99.90;;;;;;5039588;28;20215;-64
2021/12/17 00:10:00;;;;;;;79.77;44.23;;;2.40;99.90;;;;;;5041344;28;20559;-64
2021/12/17 00:12:29;;;;;;;78.10;44.70;;;2.40;99.90;;;;;;5039046;28;20689;-64
2021/12/17 00:14:58;;;;;;;66.73;39.43;;;2.40;99.90;;;;;;5046429;28;20230;-64
2021/12/17 00:17:32;;;;;;;82.10;43.97;;;2.30;99.90;;;;;;5041778;28;20662;-64
2021/12/17 00:20:31;;;;;;;68.47;40.37;;;2.30;99.90;;;;;;5049677;28;20199;-64
2021/12/17 00:51:19;;;;;;;82.97;43.20;;;2.10;99.90;;;;;;5047356;28;20743;-64
2021/12/17 00:53:47;;;;;;;119.30;48.00;;;2.10;99.90;;;;;;5043068;28;20204;-64
2021/12/17 00:56:17;;;;;;;82.63;41.93;;;2.20;99.90;;;;;;5037990;28;20205;-64
2021/12/17 00:58:46;;;;;;;75.47;42.77;;;2.20;99.90;;;;;;5040358;28;20718;-64
2021/12/17 01:01:17;;;;;;;77.53;40.77;;;2.20;99.90;;;;;;5036127;28;20208;-64
2021/12/17 01:03:47;;;;;;;123.10;46.90;;;2.10;99.90;;;;;;5045640;28;20690;-64
2021/12/17 01:06:17;;;;;;;141.00;45.63;;;2.20;99.90;;;;;;5038195;28;20678;-64
2021/12/17 01:08:45;;;;;;;103.00;45.93;;;2.10;99.90;;;;;;5039387;28;20661;-64
2021/12/17 01:11:13;;;;;;;87.23;42.73;;;2.10;99.90;;;;;;5049318;28;20207;-64
2021/12/17 01:13:44;;;;;;;112.80;46.70;;;2.10;99.90;;;;;;5045053;28;20917;-64
2021/12/17 01:16:13;;;;;;;121.97;46.33;;;2.10;99.90;;;;;;5043442;28;20207;-64
2021/12/17 01:18:59;;;;;;;194.47;48.77;;;2.10;99.90;;;;;;5036843;28;20679;-64
2021/12/17 01:21:55;;;;;;;81.70;39.63;;;2.10;99.90;;;;;;5039790;28;20667;-64
2021/12/17 01:24:41;;;;;;;109.83;45.40;;;2.10;99.90;;;;;;5040908;28;20193;-64
2021/12/17 01:35:32;;;;;;;175.03;47.33;;;2.10;99.90;;;;;;5039068;28;20717;-64
2021/12/17 01:44:32;;;;;;;80.73;41.97;;;2.10;99.90;;;;;;5023742;28;20268;-64
2021/12/17 01:47:43;;;;;;;189.67;48.17;;;2.10;99.90;;;;;;5025966;28;20912;-64
2021/12/17 02:01:22;;;;;;;144.50;47.03;;;2.10;99.90;;;;;;5028463;28;20220;-63
2021/12/17 02:04:35;;;;;;;154.97;45.50;;;2.20;99.90;;;;;;5028379;28;20189;-64
2021/12/17 02:07:46;;;;;;;184.47;45.80;;;2.10;99.90;;;;;;5022674;28;20210;-64
2021/12/17 02:11:48;;;;;;;145.00;47.13;;;2.10;99.90;;;;;;5033956;28;20249;-64
2021/12/17 02:22:34;;;;;;;107.17;41.00;;;2.10;99.90;;;;;;5023911;28;20243;-64
2021/12/17 02:29:21;;;;;;;217.53;45.83;;;2.00;99.90;;;;;;5034176;28;20214;-64
2021/12/17 02:32:33;;;;;;;98.80;41.53;;;2.00;99.90;;;;;;5063755;28;20195;-64
2021/12/17 02:35:44;;;;;;;86.93;39.17;;;2.00;99.90;;;;;;5064440;28;20724;-64
2021/12/17 02:39:08;;;;;;;114.13;44.63;;;2.00;99.90;;;;;;5067597;28;21017;-64
2021/12/17 02:42:34;;;;;;;85.13;39.30;;;2.00;99.90;;;;;;5062471;28;20188;-64
2021/12/17 02:45:43;;;;;;;181.93;49.03;;;2.00;99.90;;;;;;5066899;28;20200;-64
2021/12/17 02:48:53;;;;;;;223.30;46.70;;;2.00;99.90;;;;;;5071223;28;20208;-64
2021/12/17 02:52:08;;;;;;;128.70;44.83;;;2.00;99.90;;;;;;5065843;28;20196;-63
2021/12/17 02:55:20;;;;;;;194.47;47.20;;;2.00;99.90;;;;;;5060724;28;20215;-64
2021/12/17 02:58:32;;;;;;;122.47;43.63;;;2.00;99.90;;;;;;5067847;28;20282;-64
2021/12/17 03:01:44;;;;;;;126.60;44.60;;;2.00;99.90;;;;;;5068325;28;20187;-64
2021/12/17 03:04:54;;;;;;;120.03;42.90;;;2.10;99.90;;;;;;5069871;28;20227;-64
2021/12/17 03:08:06;;;;;;;109.57;44.33;;;2.10;99.90;;;;;;5073392;28;20198;-64
2021/12/17 03:11:17;;;;;;;120.43;43.13;;;2.10;99.90;;;;;;5056013;28;20188;-64
2021/12/17 03:14:28;;;;;;;121.53;42.37;;;2.10;99.90;;;;;;5064072;28;20216;-64
2021/12/17 03:18:02;;;;;;;84.83;40.43;;;2.10;99.90;;;;;;5062856;28;20241;-64
2021/12/17 03:24:35;;;;;;;131.90;44.33;;;2.10;99.90;;;;;;5064208;28;20199;-64
2021/12/17 03:27:46;;;;;;;86.97;36.17;;;2.10;99.90;;;;;;5070101;28;20199;-64
2021/12/17 03:30:56;;;;;;;271.83;49.63;;;2.20;99.90;;;;;;5074618;28;20199;-64
2021/12/17 03:37:36;;;;;;;102.03;40.57;;;2.20;99.90;;;;;;5069746;28;20207;-64
2021/12/17 03:40:46;;;;;;;133.97;41.77;;;2.30;99.90;;;;;;5065271;28;20817;-64
2021/12/17 03:43:57;;;;;;;81.27;38.40;;;2.30;99.90;;;;;;5071879;28;20196;-64
2021/12/17 03:47:06;;;;;;;144.93;44.57;;;2.30;99.90;;;;;;5071344;28;20834;-64
2021/12/17 03:50:15;;;;;;;195.03;47.10;;;2.30;99.90;;;;;;5074132;28;20230;-64
2021/12/17 03:53:24;;;;;;;115.27;43.83;;;2.30;99.90;;;;;;5071940;28;20192;-64
2021/12/17 03:56:33;;;;;;;156.67;47.47;;;2.30;99.90;;;;;;5066481;28;20348;-64
2021/12/17 03:59:44;;;;;;;133.17;43.20;;;2.30;99.90;;;;;;5069431;28;20707;-64
2021/12/17 04:02:53;;;;;;;141.00;43.27;;;2.40;99.90;;;;;;5069367;28;20305;-64
2021/12/17 04:06:02;;;;;;;212.03;48.37;;;2.40;99.90;;;;;;5066581;28;20204;-64
2021/12/17 04:09:12;;;;;;;159.40;45.33;;;2.40;99.90;;;;;;5078553;28;20695;-64
2021/12/17 04:12:28;;;;;;;101.57;41.83;;;2.40;99.90;;;;;;5065245;28;20199;-63
2021/12/17 04:15:39;;;;;;;106.90;42.47;;;2.40;99.90;;;;;;5070987;28;20910;-64
2021/12/17 04:18:48;;;;;;;128.27;40.50;;;2.50;99.90;;;;;;5071153;28;20192;-64
2021/12/17 04:21:57;;;;;;;77.17;37.30;;;2.50;99.90;;;;;;5070495;28;20251;-64
2021/12/17 04:25:08;;;;;;;134.73;39.47;;;2.40;99.90;;;;;;5074080;28;20239;-64
2021/12/17 04:28:18;;;;;;;82.77;35.10;;;2.50;99.90;;;;;;5070667;28;20196;-64
2021/12/17 04:31:29;;;;;;;88.30;35.60;;;2.50;99.90;;;;;;5070394;28;20631;-64
2021/12/17 04:34:38;;;;;;;234.20;47.53;;;2.50;99.90;;;;;;5077180;28;20192;-64
2021/12/17 04:37:48;;;;;;;105.20;37.67;;;2.50;99.90;;;;;;5067837;28;20195;-64
2021/12/17 04:41:09;;;;;;;110.37;37.20;;;2.60;99.90;;;;;;5063058;28;20610;-64
2021/12/17 04:44:23;;;;;;;206.83;41.90;;;2.60;99.90;;;;;;5068356;28;20223;-64
2021/12/17 04:57:56;;;;;;;271.20;46.70;;;2.60;99.90;;;;;;5071385;28;20199;-64
2021/12/17 05:01:11;;;;;;;186.47;41.87;;;2.60;99.90;;;;;;5065660;28;20204;-64
2021/12/17 05:04:22;;;;;;;214.80;42.47;;;2.60;99.90;;;;;;5062649;28;20273;-64
2021/12/17 05:07:31;;;;;;;83.30;35.97;;;2.60;99.90;;;;;;5062753;28;20480;-64
2021/12/17 05:11:00;;;;;;;341.33;47.90;;;2.60;99.90;;;;;;5069064;28;20227;-64
2021/12/17 05:21:08;;;;;;;193.00;40.93;;;2.70;99.90;;;;;;5060801;28;20314;-64
2021/12/17 05:24:17;;;;;;;148.93;39.40;;;2.70;99.90;;;;;;5071101;28;20195;-64
2021/12/17 05:27:26;;;;;;;128.40;38.50;;;2.70;99.90;;;;;;5073950;28;20202;-64
2021/12/17 05:30:37;;;;;;;101.03;37.33;;;2.70;99.90;;;;;;5062049;28;20188;-63
2021/12/17 05:33:06;;;;;;;170.50;43.30;;;2.70;99.90;;;;;;5078519;28;20350;-64
2021/12/17 05:35:34;;;;;;;164.60;40.97;;;2.70;99.90;;;;;;5080990;28;20207;-64
2021/12/17 05:38:04;;;;;;;277.90;49.27;;;2.70;99.90;;;;;;5082248;28;20271;-64
2021/12/17 05:40:32;;;;;;;163.50;44.80;;;2.70;99.90;;;;;;5076422;28;20781;-64
2021/12/17 05:43:05;;;;;;;126.17;41.27;;;2.70;99.90;;;;;;5078695;28;20191;-64
2021/12/17 05:45:36;;;;;;;195.43;46.37;;;2.80;99.90;;;;;;5078844;28;20290;-64
2021/12/17 05:48:06;;;;;;;215.70;48.40;;;2.80;99.90;;;;;;5077523;28;20200;-64
2021/12/17 05:50:36;;;;;;;219.03;51.37;;;2.80;99.90;;;;;;5087817;28;20600;-64
2021/12/17 05:53:07;;;;;;;150.90;47.60;;;2.80;99.90;;;;;;5074984;28;20547;-64
2021/12/17 05:55:39;;;;;;;122.73;42.50;;;2.90;99.90;;;;;;5082349;28;20186;-64
2021/12/17 05:58:08;;;;;;;188.87;49.73;;;2.90;99.90;;;;;;5068193;28;20291;-64
2021/12/17 06:00:39;;;;;;;162.70;46.80;;;2.90;99.90;;;;;;5080618;28;20846;-64
2021/12/17 06:03:08;;;;;;;175.17;47.50;;;2.90;99.90;;;;;;5075307;28;20236;-64
2021/12/17 06:06:01;;;;;;;183.13;47.93;;;2.90;99.90;;;;;;5060064;28;20289;-64
2021/12/17 06:08:51;;;;;;;176.73;45.80;;;3.00;99.90;;;;;;5058839;28;20196;-64
2021/12/17 06:12:00;;;;;;;140.80;42.87;;;3.00;99.90;;;;;;5080266;28;20278;-64
2021/12/17 06:15:11;;;;;;;155.87;42.27;;;3.00;99.90;;;;;;5083674;28;20194;-64
2021/12/17 06:18:20;;;;;;;137.63;43.03;;;3.10;99.90;;;;;;5084026;28;20663;-66
2021/12/17 06:21:28;;;;;;;289.10;49.50;;;3.10;99.90;;;;;;5076318;28;20214;-63
2021/12/17 06:24:38;;;;;;;155.77;43.37;;;3.10;99.90;;;;;;5074661;28;20220;-64
2021/12/17 06:27:46;;;;;;;209.80;46.53;;;3.20;99.90;;;;;;5074389;28;20207;-64
2021/12/17 06:30:55;;;;;;;210.00;48.73;;;3.20;99.90;;;;;;5082816;28;20194;-64
2021/12/17 06:34:03;;;;;;;228.63;47.67;;;3.20;99.90;;;;;;5089412;28;20286;-64
2021/12/17 06:37:12;;;;;;;277.77;50.97;;;3.20;99.90;;;;;;5085257;28;20203;-64
2021/12/17 06:40:22;;;;;;;163.47;43.23;;;3.20;99.90;;;;;;5073990;28;20714;-64
2021/12/17 06:43:36;;;;;;;140.30;42.53;;;3.30;99.90;;;;;;5074186;28;20274;-63
2021/12/17 06:46:55;;;;;;;249.30;48.33;;;3.30;99.90;;;;;;5079086;28;20903;-64
2021/12/17 07:00:36;;;;;;;159.60;40.80;;;3.40;99.90;;;;;;5078053;28;20209;-64
2021/12/17 07:10:47;;;;;;;147.30;37.63;;;3.50;99.90;;;;;;5080059;28;20280;-64
2021/12/17 07:17:24;;;;;;;218.73;40.47;;;3.50;99.90;;;;;;5069945;28;20214;-64
2021/12/17 07:21:03;;;;;;;187.20;39.20;;;3.50;99.90;;;;;;5081038;28;20218;-64
2021/12/17 07:28:12;;;;;;;258.97;43.73;;;3.60;99.90;;;;;;5089494;28;20210;-64
2021/12/17 07:34:44;;;;;;;155.53;38.80;;;3.70;99.90;;;;;;5079317;28;20214;-64
2021/12/17 07:40:38;;;;;;;254.23;43.10;;;3.70;99.90;;;;;;5089712;28;20198;-64
2021/12/17 07:43:34;;;;;;;166.20;39.60;;;3.70;99.90;;;;;;5083929;28;20195;-64
2021/12/17 07:46:24;;;;;;;151.00;38.63;;;3.70;99.90;;;;;;5081895;28;20188;-64
2021/12/17 07:49:12;;;;;;;203.97;39.20;;;3.80;99.90;;;;;;5088753;28;20282;-63
2021/12/17 07:52:00;;;;;;;312.50;46.07;;;3.80;99.90;;;;;;5084370;28;20207;-64
2021/12/17 07:54:48;;;;;;;333.07;47.63;;;3.80;99.90;;;;;;5075411;28;20227;-64
2021/12/17 07:57:37;;;;;;;175.87;39.83;;;3.80;99.90;;;;;;5077439;28;20195;-64
2021/12/17 08:00:26;;;;;;;164.17;39.23;;;3.90;99.90;;;;;;5083704;28;20200;-64
2021/12/17 08:03:16;;;;;;;189.87;40.17;;;3.90;99.90;;;;;;5084287;28;20278;-64
2021/12/17 08:06:05;;;;;;;206.83;39.73;;;3.90;99.90;;;;;;5084059;28;20200;-64
2021/12/17 08:08:54;;;;;;;242.70;42.20;;;4.00;99.90;;;;;;5078732;28;20193;-64
2021/12/17 08:11:44;;;;;;;140.53;35.93;;;4.00;99.90;;;;;;5075014;28;20199;-64
2021/12/17 08:14:32;;;;;;;200.10;38.83;;;4.00;99.90;;;;;;5082596;28;20223;-64
2021/12/17 08:17:40;;;;;;;271.07;42.27;;;4.00;99.90;;;;;;5079787;28;20210;-64
2021/12/17 08:26:58;;;;;;;172.07;36.10;;;4.10;99.90;;;;;;5064623;28;20195;-64
2021/12/17 08:29:55;;;;;;;180.73;36.33;;;4.10;99.90;;;;;;5088849;28;20207;-64
2021/12/17 08:32:44;;;;;;;138.90;35.03;;;4.10;99.90;;;;;;5085018;28;20553;-64
2021/12/17 08:35:35;;;;;;;122.03;33.80;;;4.20;99.90;;;;;;5092351;28;20237;-64
2021/12/17 08:38:24;;;;;;;266.87;40.73;;;4.30;99.90;;;;;;5082050;28;20678;-64
2021/12/17 08:41:13;;;;;;;154.50;34.50;;;4.30;99.90;;;;;;5078830;28;20187;-64
2021/12/17 08:44:01;;;;;;;280.90;40.67;;;4.30;99.90;;;;;;5074636;28;20282;-64
2021/12/17 08:46:51;;;;;;;128.40;32.80;;;4.40;99.90;;;;;;5084490;28;20192;-64
2021/12/17 08:49:40;;;;;;;268.27;41.93;;;4.40;99.90;;;;;;5084422;28;20240;-64
2021/12/17 08:52:30;;;;;;;257.37;41.13;;;4.50;99.90;;;;;;5081926;28;20198;-64
2021/12/17 08:55:19;;;;;;;373.77;47.27;;;4.50;99.90;;;;;;5084227;28;20203;-64
2021/12/17 08:57:47;;;;;;;244.90;41.17;;;4.50;99.90;;;;;;5076688;28;20207;-64
2021/12/17 09:00:16;;;;;;;279.43;42.47;;;4.60;99.90;;;;;;5082693;28;20203;-64
2021/12/17 09:02:45;;;;;;;183.77;36.90;;;4.60;99.90;;;;;;5081766;28;20223;-64
2021/12/17 09:05:14;;;;;;;270.80;40.33;;;4.60;99.90;;;;;;5085179;28;20207;-64
2021/12/17 09:07:45;;;;;;;211.07;37.13;;;4.70;99.90;;;;;;5087393;28;20765;-64
2021/12/17 09:10:19;;;;;;;315.13;43.93;;;4.70;99.90;;;;;;5092511;28;20286;-64
2021/12/17 09:12:48;;;;;;;344.20;45.43;;;4.70;99.90;;;;;;5078449;28;20259;-64
2021/12/17 09:15:17;;;;;;;183.67;38.17;;;4.80;99.90;;;;;;5078682;28;20203;-64
2021/12/17 09:17:45;;;;;;;301.70;43.27;;;4.80;99.90;;;;;;5074369;28;20663;-64
2021/12/17 09:20:15;;;;;;;214.90;39.20;;;4.90;99.90;;;;;;5096982;28;20199;-64
2021/12/17 09:22:45;;;;;;;204.17;39.67;;;4.90;99.90;;;;;;5085037;28;20207;-64
2021/12/17 09:25:14;;;;;;;241.20;40.33;;;5.00;99.90;;;;;;5081806;28;20207;-64
2021/12/17 09:27:43;;;;;;;293.70;43.67;;;5.00;99.90;;;;;;5097721;28;20562;-64
2021/12/17 09:30:15;;;;;;;262.70;41.27;;;5.00;99.90;;;;;;5078131;28;20211;-64
2021/12/17 09:32:44;;;;;;;225.97;40.83;;;5.00;99.90;;;;;;5096108;28;20339;-64
2021/12/17 09:35:15;;;;;;;328.07;44.87;;;5.10;99.90;;;;;;5095534;28;20272;-64
2021/12/17 09:37:45;;;;;;;216.33;38.03;;;5.10;99.90;;;;;;5091847;28;20293;-64
2021/12/17 09:40:14;;;;;;;222.23;39.67;;;5.10;99.90;;;;;;5083615;28;20554;-64
2021/12/17 09:42:45;;;;;;;279.40;40.47;;;5.20;99.90;;;;;;5087849;28;20250;-64
2021/12/17 09:45:15;;;;;;;241.13;40.60;;;5.30;99.90;;;;;;5086131;28;20199;-64
2021/12/17 09:47:44;;;;;;;232.37;40.00;;;5.30;99.90;;;;;;5092402;28;20282;-64
2021/12/17 09:50:16;;;;;;;269.40;42.73;;;5.30;99.90;;;;;;5080509;28;20188;-64
2021/12/17 09:52:47;;;;;;;265.23;44.83;;;5.40;99.90;;;;;;5074112;28;20207;-64
2021/12/17 09:55:16;;;;;;;252.43;44.53;;;5.40;99.90;;;;;;5081930;28;20237;-64
2021/12/17 09:57:45;;;;;;;277.50;48.03;;;5.50;99.90;;;;;;5090125;28;20555;-64
2021/12/17 10:00:19;;;;;;;217.23;41.30;;;5.50;99.90;;;;;;5082477;28;20616;-64
2021/12/17 10:02:52;;;;;;;201.03;39.93;;;5.50;99.90;;;;;;5086359;28;20210;-64
2021/12/17 10:05:23;;;;;;;252.97;43.73;;;5.60;99.90;;;;;;5081478;28;20277;-64
2021/12/17 10:07:57;;;;;;;251.60;42.90;;;5.70;99.90;;;;;;5077452;28;20597;-64
2021/12/17 10:10:34;;;;;;;276.17;42.37;;;5.70;99.90;;;;;;5081234;28;20658;-64
2021/12/17 10:13:11;;;;;;;256.07;42.67;;;5.70;99.90;;;;;;5091309;28;20628;-64
2021/12/17 10:15:41;;;;;;;312.57;46.47;;;5.80;99.90;;;;;;5080523;28;20689;-64
2021/12/17 10:18:10;;;;;;;283.77;47.43;;;5.90;99.90;;;;;;5070007;28;20207;-64
2021/12/17 10:20:43;;;;;;;331.40;49.73;;;5.90;99.90;;;;;;5078835;28;20556;-64
2021/12/17 10:23:13;;;;;;;288.37;46.43;;;5.90;99.90;;;;;;5082189;28;20210;-64
2021/12/17 10:25:44;;;;;;;270.33;47.17;;;6.00;99.90;;;;;;5084858;28;20196;-64
2021/12/17 10:28:15;;;;;;;243.93;42.87;;;6.00;99.90;;;;;;5077123;28;20585;-64
2021/12/17 10:30:45;;;;;;;290.60;46.23;;;6.00;99.90;;;;;;5089564;28;20661;-64
2021/12/17 10:33:19;;;;;;;261.13;45.90;;;6.10;99.90;;;;;;5078601;28;20666;-64
2021/12/17 10:35:49;;;;;;;265.27;45.83;;;6.10;99.90;;;;;;5088967;28;20195;-64
2021/12/17 10:38:23;;;;;;;245.23;44.37;;;6.20;99.90;;;;;;5094256;28;20636;-64
2021/12/17 10:40:59;;;;;;;257.90;43.97;;;6.20;99.90;;;;;;5087641;28;20896;-64
2021/12/17 10:43:36;;;;;;;263.70;46.27;;;6.20;99.90;;;;;;5085714;28;20826;-64
2021/12/17 10:46:11;;;;;;;275.07;43.83;;;6.20;99.90;;;;;;5092348;28;20195;-64
2021/12/17 10:48:52;;;;;;;248.50;43.30;;;6.30;99.90;;;;;;5090867;28;20229;-64
2021/12/17 10:51:46;;;;;;;259.07;46.77;;;6.40;99.90;;;;;;5084409;28;20692;-64
2021/12/17 10:54:18;;;;;;;286.87;47.53;;;6.50;99.90;;;;;;5082828;28;20271;-64
2021/12/17 10:56:54;;;;;;;267.80;44.93;;;6.40;99.90;;;;;;5080383;28;20962;-64
2021/12/17 10:59:24;;;;;;;278.20;46.07;;;6.50;99.90;;;;;;5091950;28;20203;-64
2021/12/17 11:01:55;;;;;;;277.70;47.10;;;6.60;99.90;;;;;;5090647;28;20799;-64
2021/12/17 11:04:27;;;;;;;261.57;47.07;;;6.60;99.90;;;;;;5078027;28;20694;-64
2021/12/17 11:06:58;;;;;;;293.97;47.50;;;6.60;99.90;;;;;;5076607;28;20716;-64
2021/12/17 11:09:40;;;;;;;270.43;48.43;;;6.60;99.90;;;;;;5083010;28;20211;-64
2021/12/17 11:12:27;;;;;;;292.03;48.30;;;6.70;99.90;;;;;;5082131;28;20294;-64
2021/12/17 11:15:07;;;;;;;252.13;47.23;;;6.70;99.90;;;;;;5057486;28;20203;-65
2021/12/17 11:17:36;;;;;;;261.40;46.50;;;6.70;99.90;;;;;;5060809;28;20218;-65
2021/12/17 11:20:09;;;;;;;288.27;46.10;;;6.80;99.90;;;;;;5062071;28;20212;-65
2021/12/17 11:22:39;;;;;;;277.97;49.30;;;6.80;99.90;;;;;;5054171;28;20721;-64
2021/12/17 11:25:10;;;;;;;252.37;47.80;;;6.80;99.90;;;;;;5070446;28;20196;-64
2021/12/17 11:27:38;;;;;;;260.17;46.87;;;6.90;99.90;;;;;;5059333;28;20198;-65
2021/12/17 11:30:08;;;;;;;226.60;45.57;;;7.00;99.90;;;;;;5068881;28;20192;-64
2021/12/17 11:32:37;;;;;;;238.50;45.43;;;7.00;99.90;;;;;;5069592;28;20242;-64
2021/12/17 11:35:07;;;;;;;247.87;46.20;;;7.00;99.90;;;;;;5065653;28;20228;-65
2021/12/17 11:37:39;;;;;;;230.90;45.33;;;7.10;99.90;;;;;;5061278;28;20204;-64
2021/12/17 11:40:15;;;;;;;242.77;45.20;;;7.20;99.90;;;;;;5066551;28;20199;-65
2021/12/17 11:43:14;;;;;;;233.40;43.93;;;7.20;99.90;;;;;;5061379;28;20688;-64
2021/12/17 11:45:44;;;;;;;237.67;44.67;;;7.20;99.90;;;;;;5063382;28;20274;-65
2021/12/17 11:48:18;;;;;;;246.77;45.47;;;7.20;99.90;;;;;;5062583;28;20219;-64
2021/12/17 11:51:03;;;;;;;236.90;43.63;;;7.30;99.90;;;;;;5064690;28;20765;-64
2021/12/17 11:53:33;;;;;;;235.03;43.60;;;7.30;99.90;;;;;;5059645;28;20572;-64
2021/12/17 11:56:04;;;;;;;244.10;44.90;;;7.20;99.90;;;;;;5064393;28;20200;-65
2021/12/17 11:58:53;;;;;;;232.40;44.30;;;7.20;99.90;;;;;;5054839;28;20736;-64
2021/12/17 12:01:51;;;;;;;220.20;42.33;;;7.30;99.90;;;;;;5062946;28;20200;-65
2021/12/17 12:04:48;;;;;;;222.37;42.77;;;7.30;99.90;;;;;;5065236;28;20220;-65
2021/12/17 12:07:19;;;;;;;230.23;44.80;;;7.30;99.90;;;;;;5064500;28;20270;-65
2021/12/17 12:10:02;;;;;;;217.07;42.63;;;7.30;99.90;;;;;;5064886;28;20200;-65
2021/12/17 12:13:01;;;;;;;228.77;41.20;;;7.30;99.90;;;;;;5063391;28;20207;-65
2021/12/17 12:15:38;;;;;;;198.37;38.27;;;7.40;99.90;;;;;;5090004;28;20233;-64
2021/12/17 12:18:19;;;;;;;206.23;40.07;;;7.40;99.90;;;;;;5078453;28;20305;-65
2021/12/17 12:20:59;;;;;;;200.43;40.47;;;7.40;99.90;;;;;;5085870;28;20711;-64
2021/12/17 12:23:51;;;;;;;195.53;37.87;;;7.40;99.90;;;;;;5079303;28;20313;-65
2021/12/17 12:26:26;;;;;;;188.10;37.97;;;7.40;99.90;;;;;;5079329;28;20260;-65
2021/12/17 12:29:03;;;;;;;186.93;38.50;;;7.40;99.90;;;;;;5081056;28;20244;-65
2021/12/17 12:31:42;;;;;;;188.03;36.30;;;7.40;99.90;;;;;;5088604;28;20203;-65
2021/12/17 12:34:13;;;;;;;187.57;36.57;;;7.50;99.90;;;;;;5085259;28;20810;-65
2021/12/17 12:37:04;;;;;;;185.67;37.97;;;7.50;99.90;;;;;;5090775;28;20198;-65
2021/12/17 12:39:36;;;;;;;182.87;36.40;;;7.40;99.90;;;;;;5079942;28;20199;-65
2021/12/17 12:42:08;;;;;;;182.33;36.10;;;7.40;99.90;;;;;;5085039;28;20563;-64
2021/12/17 12:45:14;;;;;;;161.97;34.73;;;7.50;99.90;;;;;;5092099;28;20225;-64
2021/12/17 12:47:48;;;;;;;167.07;33.30;;;7.50;99.90;;;;;;5082719;28;20207;-65
2021/12/17 12:50:18;;;;;;;178.20;35.23;;;7.50;99.90;;;;;;5090970;28;20856;-64
2021/12/17 12:52:51;;;;;;;159.60;35.43;;;7.50;99.90;;;;;;5086137;28;20195;-64
2021/12/17 12:55:24;;;;;;;168.93;35.70;;;7.50;99.90;;;;;;5085920;28;20227;-64
2021/12/17 12:57:54;;;;;;;162.60;33.20;;;7.50;99.90;;;;;;5081648;28;20551;-64
2021/12/17 13:00:27;;;;;;;140.57;33.37;;;7.50;99.90;;;;;;5094391;28;20213;-65
2021/12/17 13:02:57;;;;;;;146.67;32.77;;;7.50;99.90;;;;;;5088825;28;20208;-65
2021/12/17 13:05:27;;;;;;;156.87;33.77;;;7.60;99.90;;;;;;5078602;28;20234;-65
2021/12/17 13:07:58;;;;;;;132.00;31.87;;;7.60;99.90;;;;;;5089030;28;20204;-65
2021/12/17 13:10:30;;;;;;;149.60;33.97;;;7.60;99.90;;;;;;5094352;28;20213;-64
2021/12/17 13:13:04;;;;;;;129.57;31.23;;;7.50;99.90;;;;;;5079677;28;20227;-65
2021/12/17 13:15:45;;;;;;;137.30;32.90;;;7.50;99.90;;;;;;5082713;28;20689;-65
2021/12/17 13:21:20;;;;;;;134.17;32.90;;;7.60;99.90;;;;;;5080745;28;20256;-65
2021/12/17 13:23:54;;;;;;;150.27;34.67;;;7.50;99.90;;;;;;5079270;28;20206;-64
2021/12/17 13:26:26;;;;;;;121.50;32.43;;;7.50;99.90;;;;;;5089970;28;20206;-65
2021/12/17 13:29:01;;;;;;;142.43;33.80;;;7.50;99.90;;;;;;5081840;28;20697;-65
2021/12/17 13:31:40;;;;;;;121.97;33.33;;;7.50;99.90;;;;;;5080880;28;20217;-65
2021/12/17 13:34:15;;;;;;;137.40;33.70;;;7.50;99.90;;;;;;5095423;28;20211;-65
2021/12/17 13:36:56;;;;;;;154.07;35.17;;;7.50;99.90;;;;;;5084076;28;20198;-64
2021/12/17 13:39:27;;;;;;;157.80;36.57;;;7.50;99.90;;;;;;5079776;28;20716;-64
2021/12/17 13:41:56;;;;;;;156.43;35.43;;;7.50;99.90;;;;;;5084982;28;20694;-65
2021/12/17 13:44:33;;;;;;;145.47;37.27;;;7.50;99.90;;;;;;5077818;28;20674;-65
2021/12/17 13:47:16;;;;;;;164.53;37.10;;;7.50;99.90;;;;;;5088748;28;20281;-65
2021/12/17 13:49:46;;;;;;;168.30;37.50;;;7.40;99.90;;;;;;5081046;28;20200;-65
2021/12/17 13:52:16;;;;;;;177.97;37.90;;;7.40;99.90;;;;;;5085147;28;20208;-64
2021/12/17 13:54:49;;;;;;;166.13;38.30;;;7.40;99.90;;;;;;5080738;28;20554;-65
2021/12/17 13:57:20;;;;;;;176.10;37.67;;;7.50;99.90;;;;;;5079128;28;20456;-65
2021/12/17 13:59:52;;;;;;;204.17;39.80;;;7.50;99.90;;;;;;5085350;28;20195;-65
2021/12/17 14:02:24;;;;;;;197.07;39.87;;;7.50;99.90;;;;;;5084060;28;20195;-65
2021/12/17 14:05:04;;;;;;;193.37;38.60;;;7.40;99.90;;;;;;5083862;28;20265;-65
2021/12/17 14:07:35;;;;;;;198.37;39.43;;;7.50;99.90;;;;;;5080228;28;20206;-65
2021/12/17 14:10:08;;;;;;;191.90;37.80;;;7.40;99.90;;;;;;5076313;28;20203;-65
2021/12/17 14:12:39;;;;;;;181.73;37.63;;;7.50;99.90;;;;;;5084918;28;20554;-65
2021/12/17 14:15:31;;;;;;;196.83;37.93;;;7.50;99.90;;;;;;5081363;28;21144;-65
2021/12/17 14:18:05;;;;;;;210.03;39.53;;;7.50;99.90;;;;;;5075762;28;20207;-65
2021/12/17 14:20:39;;;;;;;230.67;40.70;;;7.50;99.90;;;;;;5082063;28;20489;-65
2021/12/17 14:23:11;;;;;;;208.53;39.40;;;7.40;99.90;;;;;;5091727;28;20652;-65
2021/12/17 14:25:41;;;;;;;211.57;40.30;;;7.40;99.90;;;;;;5080780;28;20885;-65
2021/12/17 14:28:13;;;;;;;220.43;40.37;;;7.50;99.90;;;;;;5078939;28;20226;-65
2021/12/17 14:30:44;;;;;;;222.33;40.77;;;7.50;99.90;;;;;;5083660;28;20290;-65
2021/12/17 14:33:15;;;;;;;229.93;44.53;;;7.50;99.90;;;;;;5082783;28;20198;-65
2021/12/17 14:35:57;;;;;;;220.10;40.80;;;7.50;99.90;;;;;;5076895;28;20207;-65
2021/12/17 14:38:38;;;;;;;200.63;40.47;;;7.50;99.90;;;;;;5084139;28;20199;-64
2021/12/17 14:41:07;;;;;;;233.43;40.67;;;7.50;99.90;;;;;;5083402;28;20267;-65
2021/12/17 14:43:40;;;;;;;230.40;40.33;;;7.50;99.90;;;;;;5078598;28;20278;-64
2021/12/17 14:46:18;;;;;;;215.10;42.17;;;7.50;99.90;;;;;;5079068;28;20661;-65
2021/12/17 14:49:10;;;;;;;208.23;42.13;;;7.50;99.90;;;;;;5092113;28;20198;-65
2021/12/17 14:57:26;;;;;;;224.87;41.47;;;7.50;99.90;;;;;;5085919;28;20242;-65
2021/12/17 15:02:50;;;;;;;199.83;39.97;;;7.50;99.90;;;;;;5081718;28;20566;-65
2021/12/17 15:05:24;;;;;;;227.00;40.50;;;7.50;99.90;;;;;;5085798;28;20211;-65
2021/12/17 15:07:53;;;;;;;225.00;41.73;;;7.50;99.90;;;;;;5073150;28;20583;-65
2021/12/17 15:10:23;;;;;;;209.10;40.67;;;7.50;99.90;;;;;;5096678;28;20191;-65
2021/12/17 15:12:56;;;;;;;224.60;41.40;;;7.50;99.90;;;;;;5078316;28;20246;-64
2021/12/17 15:15:26;;;;;;;217.50;39.43;;;7.60;99.90;;;;;;5063537;28;20197;-65
2021/12/17 15:17:57;;;;;;;204.37;39.87;;;7.60;99.90;;;;;;5071310;28;20658;-65
2021/12/17 15:20:29;;;;;;;201.23;40.57;;;7.60;99.90;;;;;;5066415;28;20837;-65
2021/12/17 15:23:03;;;;;;;184.17;38.20;;;7.60;99.90;;;;;;5073753;28;20211;-65
2021/12/17 15:25:32;;;;;;;167.17;36.80;;;7.60;99.90;;;;;;5066490;28;20880;-65
2021/12/17 15:28:01;;;;;;;150.90;36.80;;;7.60;99.90;;;;;;5061387;28;20196;-64
2021/12/17 15:30:32;;;;;;;155.27;35.73;;;7.60;99.90;;;;;;5061830;28;20284;-65
2021/12/17 15:33:01;;;;;;;160.23;34.30;;;7.60;99.90;;;;;;5066705;28;20203;-65
2021/12/17 15:35:31;;;;;;;162.57;35.53;;;7.70;99.90;;;;;;5065499;28;20193;-65
2021/12/17 15:38:00;;;;;;;150.53;35.23;;;7.70;99.90;;;;;;5078679;28;20203;-65
2021/12/17 15:40:35;;;;;;;129.90;32.53;;;7.70;99.90;;;;;;5061244;28;20622;-65
2021/12/17 15:43:03;;;;;;;135.13;31.23;;;7.70;99.90;;;;;;5064788;28;20203;-65
2021/12/17 15:45:32;;;;;;;117.67;30.20;;;7.70;99.90;;;;;;5068179;28;20223;-65
2021/12/17 15:48:03;;;;;;;124.80;30.90;;;7.70;99.90;;;;;;5074480;28;20578;-65
2021/12/17 15:50:53;;;;;;;120.97;31.83;;;7.70;99.90;;;;;;5069114;28;20201;-65
2021/12/17 15:53:22;;;;;;;128.77;30.33;;;7.70;99.90;;;;;;5078543;28;20204;-64
2021/12/17 15:55:50;;;;;;;119.77;30.27;;;7.70;99.90;;;;;;5066229;28;20668;-65
2021/12/17 15:58:18;;;;;;;120.00;31.13;;;7.70;99.90;;;;;;5067676;28;20203;-65
2021/12/17 16:00:49;;;;;;;112.07;30.67;;;7.80;99.90;;;;;;5061880;28;20284;-65
2021/12/17 16:03:21;;;;;;;115.13;29.37;;;7.80;99.90;;;;;;5070910;28;20191;-65
2021/12/17 16:05:50;;;;;;;114.07;30.53;;;7.80;99.90;;;;;;5063112;28;20217;-65
2021/12/17 16:08:20;;;;;;;120.70;30.17;;;7.80;99.90;;;;;;5067554;28;20196;-65
2021/12/17 16:23:23;;;;;;;86.47;25.63;;;7.80;99.90;;;;;;5091663;28;20195;-65
2021/12/17 16:25:52;;;;;;;96.97;27.10;;;7.80;99.90;;;;;;5089320;28;20199;-65
2021/12/17 16:28:20;;;;;;;90.83;26.87;;;7.80;99.90;;;;;;5092773;28;20199;-65